Time;durP1;ratioP1;P1;durP2;ratioP2;P2;SDS_P1;SDS_P2;PMS_P1;PMS_P2;Temp;Humidity;BMP_temperature;BMP_pressure;BME280_temperature;BME280_humidity;BME280_pressure;Samples;Min_cycle;Max_cycle;Signal;HPM_P1;HPM_P2
2023/05/15 00:01:41;;;;;;;3.97;1.40;;;16.60;52.40;;;;;;5034740;28;20413;-43
2023/05/15 00:04:10;;;;;;;2.17;1.77;;;16.50;52.40;;;;;;5035821;28;20061;-41
2023/05/15 00:06:38;;;;;;;2.00;1.80;;;16.50;52.50;;;;;;5036737;28;20722;-41
2023/05/15 00:09:05;;;;;;;2.50;2.10;;;16.50;52.60;;;;;;5039350;28;20436;-41
2023/05/15 00:11:32;;;;;;;2.40;1.80;;;16.40;52.60;;;;;;5034216;28;20053;-43
2023/05/15 00:13:59;;;;;;;2.08;1.83;;;16.40;52.70;;;;;;5035708;28;20515;-46
2023/05/15 00:16:26;;;;;;;2.00;1.63;;;16.40;52.70;;;;;;5039340;28;20067;-42
2023/05/15 00:18:54;;;;;;;2.03;1.42;;;16.40;52.80;;;;;;5040142;28;20477;-44
2023/05/15 00:21:22;;;;;;;2.67;1.90;;;16.30;52.80;;;;;;5037728;28;20060;-43
2023/05/15 00:23:52;;;;;;;2.63;1.80;;;16.30;52.90;;;;;;5033161;28;20053;-42
2023/05/15 00:26:20;;;;;;;3.20;1.88;;;16.30;52.90;;;;;;5038543;28;20417;-43
2023/05/15 00:28:47;;;;;;;2.47;1.98;;;16.20;52.80;;;;;;5027401;28;20049;-41
2023/05/15 00:31:15;;;;;;;2.85;2.05;;;16.30;52.90;;;;;;5036781;28;20056;-41
2023/05/15 00:33:42;;;;;;;2.65;1.88;;;16.20;53.00;;;;;;5031967;28;20052;-40
2023/05/15 00:36:10;;;;;;;2.65;1.80;;;16.20;53.00;;;;;;5038977;28;20061;-41
2023/05/15 00:38:38;;;;;;;2.05;1.75;;;16.10;53.00;;;;;;5037628;28;20056;-44
2023/05/15 00:41:06;;;;;;;3.22;1.92;;;16.10;53.10;;;;;;5037146;28;20048;-43
2023/05/15 00:43:36;;;;;;;3.10;1.95;;;16.10;53.20;;;;;;5029300;28;20405;-43
2023/05/15 00:46:04;;;;;;;3.28;2.00;;;16.10;53.20;;;;;;5031482;28;20057;-45
2023/05/15 00:48:32;;;;;;;3.28;1.70;;;16.00;53.20;;;;;;5037519;28;20611;-41
2023/05/15 00:51:00;;;;;;;3.28;2.13;;;16.00;53.20;;;;;;5036296;28;20049;-43
2023/05/15 00:53:28;;;;;;;4.72;2.17;;;15.90;53.20;;;;;;5032657;28;20053;-42
2023/05/15 00:55:58;;;;;;;2.20;2.00;;;15.90;53.30;;;;;;5039411;28;20057;-43
2023/05/15 00:58:27;;;;;;;2.85;1.98;;;15.90;53.40;;;;;;5036142;28;20516;-43
2023/05/15 01:00:54;;;;;;;2.20;1.98;;;15.90;53.50;;;;;;5037193;28;20415;-47
2023/05/15 01:03:22;;;;;;;2.03;1.83;;;15.80;53.50;;;;;;5057886;22;20052;-41
2023/05/15 01:05:49;;;;;;;2.45;2.03;;;15.80;53.60;;;;;;5056786;28;20499;-45
2023/05/15 01:08:20;;;;;;;2.92;2.08;;;15.80;53.70;;;;;;5056429;28;20052;-45
2023/05/15 01:10:49;;;;;;;3.78;2.42;;;15.80;53.80;;;;;;5060412;28;20059;-44
2023/05/15 01:13:20;;;;;;;5.25;1.90;;;15.90;53.80;;;;;;5049994;28;20055;-44
2023/05/15 01:15:49;;;;;;;3.33;2.13;;;15.80;53.90;;;;;;5057087;28;20055;-45
2023/05/15 01:18:16;;;;;;;2.38;1.58;;;15.80;54.00;;;;;;5056322;28;20060;-42
2023/05/15 01:21:01;;;;;;;2.30;2.10;;;15.80;53.90;;;;;;5057202;28;20049;-42
2023/05/15 01:23:43;;;;;;;2.72;1.98;;;15.80;54.10;;;;;;5051305;28;20072;-42
2023/05/15 01:26:35;;;;;;;2.15;1.92;;;15.80;54.10;;;;;;5057008;28;20056;-44
2023/05/15 01:29:12;;;;;;;2.17;1.73;;;15.70;54.20;;;;;;5047886;28;20044;-46
2023/05/15 01:31:46;;;;;;;2.78;2.20;;;15.80;54.20;;;;;;5055977;28;20067;-46
2023/05/15 01:34:17;;;;;;;2.85;2.20;;;15.80;54.20;;;;;;5055276;28;20053;-44
2023/05/15 01:36:49;;;;;;;2.70;2.00;;;15.80;54.20;;;;;;5056594;28;20049;-49
2023/05/15 01:39:21;;;;;;;2.92;2.63;;;15.70;54.20;;;;;;5047111;28;20044;-44
2023/05/15 01:41:54;;;;;;;4.72;2.63;;;15.80;54.20;;;;;;5054814;28;20052;-48
2023/05/15 01:44:28;;;;;;;4.43;2.95;;;15.70;54.30;;;;;;5058459;28;20063;-43
2023/05/15 01:46:58;;;;;;;5.90;3.75;;;15.70;54.30;;;;;;5056454;28;20056;-46
2023/05/15 01:49:27;;;;;;;12.30;4.32;;;15.70;54.30;;;;;;5052511;28;20048;-50
2023/05/15 01:52:01;;;;;;;6.28;4.50;;;15.70;54.30;;;;;;5056136;28;20423;-46
2023/05/15 01:54:29;;;;;;;5.70;4.82;;;15.70;54.40;;;;;;5053273;28;20063;-48
2023/05/15 01:56:58;;;;;;;6.53;5.25;;;15.70;54.50;;;;;;5044152;28;20130;-45
2023/05/15 01:59:29;;;;;;;7.60;5.88;;;15.70;54.60;;;;;;5052027;28;20056;-43
2023/05/15 02:01:58;;;;;;;8.60;6.10;;;15.70;54.90;;;;;;5057298;28;20407;-43
2023/05/15 02:04:26;;;;;;;15.55;6.75;;;15.70;55.00;;;;;;5029705;28;20526;-43
2023/05/15 02:06:54;;;;;;;11.98;6.80;;;15.70;55.10;;;;;;5021907;28;20053;-46
2023/05/15 02:09:22;;;;;;;9.80;6.60;;;15.70;55.20;;;;;;5022409;28;20053;-44
2023/05/15 02:11:51;;;;;;;12.30;7.70;;;15.60;55.30;;;;;;5021885;28;20053;-43
2023/05/15 02:14:19;;;;;;;10.77;6.93;;;15.60;55.60;;;;;;5023127;28;20053;-36
2023/05/15 02:16:47;;;;;;;11.55;8.02;;;15.60;55.70;;;;;;5019910;28;20053;-40
2023/05/15 02:19:15;;;;;;;13.45;8.88;;;15.60;55.80;;;;;;5021912;28;20496;-35
2023/05/15 02:21:42;;;;;;;13.57;9.30;;;15.60;55.90;;;;;;5022364;28;20045;-35
2023/05/15 02:24:09;;;;;;;15.35;8.45;;;15.60;56.00;;;;;;5021299;28;20060;-35
2023/05/15 02:26:43;;;;;;;15.48;9.75;;;15.60;56.00;;;;;;5021363;28;20052;-37
2023/05/15 02:29:20;;;;;;;13.60;9.45;;;15.60;56.30;;;;;;5022087;28;20059;-36
2023/05/15 02:31:59;;;;;;;14.88;10.10;;;15.60;56.50;;;;;;5019284;28;20049;-35
2023/05/15 02:34:42;;;;;;;17.67;12.20;;;15.60;56.70;;;;;;5020988;28;20064;-36
2023/05/15 02:37:13;;;;;;;25.48;14.07;;;15.60;56.80;;;;;;5022770;28;20555;-38
2023/05/15 02:39:44;;;;;;;19.73;13.57;;;15.60;57.20;;;;;;5015013;28;20041;-35
2023/05/15 02:42:13;;;;;;;17.65;13.27;;;15.60;57.50;;;;;;5020085;28;20056;-35
2023/05/15 02:44:43;;;;;;;29.92;18.48;;;15.70;57.70;;;;;;5022531;28;20052;-39
2023/05/15 02:47:12;;;;;;;25.35;16.55;;;15.70;58.40;;;;;;5021390;28;20054;-36
2023/05/15 02:49:39;;;;;;;25.90;15.55;;;15.70;58.40;;;;;;5023412;28;20080;-35
2023/05/15 02:52:07;;;;;;;31.30;20.30;;;15.70;58.40;;;;;;5022285;28;20100;-37
2023/05/15 02:54:34;;;;;;;23.63;17.52;;;15.70;58.70;;;;;;5022816;28;20057;-37
2023/05/15 02:57:02;;;;;;;23.92;17.00;;;15.70;58.80;;;;;;5022351;28;20057;-35
2023/05/15 02:59:29;;;;;;;32.47;20.45;;;15.70;58.80;;;;;;5021483;28;20500;-37
2023/05/15 03:01:56;;;;;;;31.42;21.67;;;15.70;58.90;;;;;;5021265;28;20412;-36
2023/05/15 03:04:25;;;;;;;31.58;20.95;;;15.80;59.20;;;;;;5022331;28;20065;-35
2023/05/15 03:06:52;;;;;;;31.92;19.35;;;15.80;59.20;;;;;;5023117;28;20080;-39
2023/05/15 03:09:19;;;;;;;36.88;24.40;;;15.80;59.20;;;;;;5026833;28;20065;-42
2023/05/15 03:11:47;;;;;;;34.15;22.55;;;15.80;59.50;;;;;;5026977;28;20060;-41
2023/05/15 03:14:14;;;;;;;39.65;24.80;;;15.90;59.60;;;;;;5025518;28;20046;-43
2023/05/15 03:16:41;;;;;;;37.13;25.15;;;15.90;59.70;;;;;;5023766;28;20068;-43
2023/05/15 03:19:09;;;;;;;36.92;25.52;;;15.90;59.80;;;;;;5025833;28;20060;-40
2023/05/15 03:21:37;;;;;;;40.35;25.92;;;15.90;60.00;;;;;;5023853;28;20409;-41
2023/05/15 03:24:05;;;;;;;46.05;27.92;;;15.90;60.00;;;;;;5027016;28;20045;-42
2023/05/15 03:26:32;;;;;;;56.53;31.95;;;15.90;60.30;;;;;;5026997;28;20060;-43
2023/05/15 03:29:01;;;;;;;49.97;30.27;;;15.90;60.30;;;;;;5025121;28;20061;-45
2023/05/15 03:31:28;;;;;;;53.92;31.85;;;15.90;60.80;;;;;;5024896;28;20049;-44
2023/05/15 03:33:55;;;;;;;52.88;30.85;;;15.90;60.80;;;;;;5025792;28;20053;-42
2023/05/15 03:36:22;;;;;;;47.70;28.75;;;16.00;61.10;;;;;;5022443;28;20053;-42
2023/05/15 03:38:51;;;;;;;50.50;29.65;;;16.00;61.20;;;;;;5026224;28;20052;-43
2023/05/15 03:41:18;;;;;;;56.05;31.83;;;16.00;61.50;;;;;;5026901;28;20068;-48
2023/05/15 03:43:45;;;;;;;56.00;31.80;;;16.00;61.50;;;;;;5028072;28;20061;-45
2023/05/15 03:46:13;;;;;;;48.25;28.00;;;16.00;61.70;;;;;;5024311;28;20072;-49
2023/05/15 03:48:40;;;;;;;59.00;29.92;;;15.90;61.60;;;;;;5026635;28;20492;-42
2023/05/15 03:51:07;;;;;;;45.97;26.98;;;15.90;61.70;;;;;;5023798;28;20049;-41
2023/05/15 03:53:34;;;;;;;58.67;30.77;;;15.90;61.80;;;;;;5024971;28;20405;-42
2023/05/15 03:56:03;;;;;;;57.00;32.85;;;16.00;62.00;;;;;;5024395;28;20063;-44
2023/05/15 03:58:31;;;;;;;64.47;34.78;;;16.00;62.20;;;;;;5025353;28;21363;-47
2023/05/15 04:00:59;;;;;;;65.80;34.50;;;16.00;62.50;;;;;;5024067;28;20046;-41
2023/05/15 04:03:26;;;;;;;70.47;36.88;;;16.00;62.70;;;;;;5025837;28;20065;-45
2023/05/15 04:05:53;;;;;;;82.43;40.13;;;16.00;62.80;;;;;;5024438;28;20053;-42
2023/05/15 04:08:20;;;;;;;86.18;41.88;;;16.00;63.10;;;;;;5024227;28;20057;-45
2023/05/15 04:10:47;;;;;;;86.60;41.63;;;16.00;63.40;;;;;;5024551;28;21642;-41
2023/05/15 04:13:16;;;;;;;80.85;43.10;;;16.00;63.70;;;;;;5025902;28;20417;-40
2023/05/15 04:15:43;;;;;;;88.03;44.65;;;16.00;63.80;;;;;;5023681;28;20054;-45
2023/05/15 04:18:10;;;;;;;77.18;40.00;;;16.00;64.10;;;;;;5023279;28;20504;-46
2023/05/15 04:20:37;;;;;;;81.28;43.50;;;16.00;63.90;;;;;;5025045;28;20045;-44
2023/05/15 04:23:05;;;;;;;97.07;46.33;;;16.00;64.00;;;;;;5025011;28;20061;-46
2023/05/15 04:25:32;;;;;;;88.72;44.95;;;16.00;64.20;;;;;;5024408;28;20049;-43
2023/05/15 04:28:00;;;;;;;89.75;46.88;;;16.00;64.30;;;;;;5024360;28;20057;-47
2023/05/15 04:30:28;;;;;;;92.88;49.78;;;16.00;64.40;;;;;;5021639;28;20412;-47
2023/05/15 04:32:56;;;;;;;95.38;49.88;;;16.00;64.60;;;;;;5022666;28;20057;-42
2023/05/15 04:35:23;;;;;;;92.47;47.60;;;16.10;64.70;;;;;;5025883;28;20059;-42
2023/05/15 04:37:50;;;;;;;107.85;53.20;;;16.00;64.60;;;;;;5024679;28;20045;-43
2023/05/15 04:40:18;;;;;;;100.57;52.45;;;16.00;64.90;;;;;;5023533;28;20050;-41
2023/05/15 04:42:45;;;;;;;108.97;52.88;;;16.00;64.90;;;;;;5022078;28;20543;-45
2023/05/15 04:45:13;;;;;;;94.80;49.05;;;16.00;65.10;;;;;;5021398;28;20064;-46
2023/05/15 04:47:42;;;;;;;103.05;52.60;;;16.00;65.00;;;;;;5022980;28;20049;-41
2023/05/15 04:50:10;;;;;;;110.20;51.88;;;16.00;65.20;;;;;;5024440;28;20053;-47
2023/05/15 04:52:37;;;;;;;101.88;53.33;;;16.00;65.40;;;;;;5024125;28;20053;-44
2023/05/15 04:55:05;;;;;;;98.50;51.53;;;16.00;65.50;;;;;;5022984;28;20783;-44
2023/05/15 04:57:32;;;;;;;100.32;51.55;;;16.00;65.50;;;;;;5023898;28;20046;-44
2023/05/15 05:00:01;;;;;;;101.85;51.63;;;16.00;65.50;;;;;;5022305;28;20053;-43
2023/05/15 05:02:28;;;;;;;110.97;55.22;;;16.00;65.50;;;;;;5018373;28;20089;-42
2023/05/15 05:04:56;;;;;;;103.65;53.05;;;16.00;65.50;;;;;;5023003;28;20068;-45
2023/05/15 05:07:24;;;;;;;110.13;55.60;;;16.00;65.40;;;;;;5023853;28;20068;-46
2023/05/15 05:09:51;;;;;;;95.40;50.33;;;16.10;65.20;;;;;;5022664;28;20057;-41
2023/05/15 05:12:18;;;;;;;112.65;55.67;;;16.10;65.10;;;;;;5023400;28;20057;-41
2023/05/15 05:14:45;;;;;;;95.60;52.50;;;16.10;64.90;;;;;;5022286;28;20064;-43
2023/05/15 05:17:13;;;;;;;100.68;51.63;;;16.10;64.70;;;;;;5020082;28;20063;-44
2023/05/15 05:19:40;;;;;;;101.88;53.35;;;16.20;64.70;;;;;;5021295;28;20519;-46
2023/05/15 05:22:09;;;;;;;97.53;53.08;;;16.20;64.50;;;;;;5020512;28;20045;-45
2023/05/15 05:24:36;;;;;;;112.15;56.55;;;16.20;64.30;;;;;;5021143;28;20052;-43
2023/05/15 05:27:04;;;;;;;105.32;54.47;;;16.20;64.20;;;;;;5023688;28;20049;-44
2023/05/15 05:29:32;;;;;;;116.13;56.92;;;16.20;63.90;;;;;;5020010;28;20050;-45
2023/05/15 05:32:00;;;;;;;103.82;56.53;;;16.30;63.90;;;;;;5019686;28;20041;-41
2023/05/15 05:34:27;;;;;;;100.90;55.47;;;16.30;63.70;;;;;;5023231;28;20045;-40
2023/05/15 05:36:55;;;;;;;112.55;57.80;;;16.30;63.50;;;;;;5021234;28;20053;-42
2023/05/15 05:39:24;;;;;;;110.85;60.42;;;16.30;63.20;;;;;;5022243;28;20057;-41
2023/05/15 05:41:51;;;;;;;120.90;63.00;;;16.30;63.00;;;;;;5023370;28;20064;-42
2023/05/15 05:44:18;;;;;;;121.55;64.32;;;16.30;62.70;;;;;;5024456;28;20053;-43
2023/05/15 05:46:46;;;;;;;121.05;65.22;;;16.30;62.20;;;;;;5020203;28;20061;-41
2023/05/15 05:49:13;;;;;;;114.22;64.13;;;16.30;62.10;;;;;;5022062;28;20072;-43
2023/05/15 05:51:40;;;;;;;112.65;60.70;;;16.30;62.00;;;;;;5022371;28;20053;-47
2023/05/15 05:54:07;;;;;;;113.47;61.33;;;16.30;62.10;;;;;;5023020;28;20400;-46
2023/05/15 05:56:36;;;;;;;111.40;61.65;;;16.20;62.20;;;;;;5022508;28;20070;-47
2023/05/15 05:59:05;;;;;;;114.43;62.72;;;16.20;62.30;;;;;;5021090;28;20076;-43
2023/05/15 06:01:32;;;;;;;104.43;59.17;;;16.20;62.10;;;;;;5022654;28;20057;-36
2023/05/15 06:04:00;;;;;;;104.63;58.58;;;16.20;62.00;;;;;;5021617;28;20068;-37
2023/05/15 06:06:27;;;;;;;97.63;54.03;;;16.20;62.10;;;;;;5022195;28;20060;-35
2023/05/15 06:08:55;;;;;;;92.35;54.25;;;16.20;62.10;;;;;;5021042;28;20046;-38
2023/05/15 06:11:22;;;;;;;93.22;55.53;;;16.20;62.20;;;;;;5022716;28;20500;-36
2023/05/15 06:13:51;;;;;;;97.57;56.42;;;16.20;62.20;;;;;;5022659;28;20057;-36
2023/05/15 06:16:18;;;;;;;95.75;58.30;;;16.20;62.50;;;;;;5023804;28;20088;-35
2023/05/15 06:18:45;;;;;;;89.85;55.42;;;16.20;62.50;;;;;;5022831;28;20072;-35
2023/05/15 06:21:13;;;;;;;91.47;56.90;;;16.10;62.30;;;;;;5022752;28;20057;-34
2023/05/15 06:23:40;;;;;;;95.68;57.38;;;16.10;62.20;;;;;;5021743;28;20053;-35
2023/05/15 06:26:07;;;;;;;98.65;58.67;;;16.10;62.10;;;;;;5021155;28;20068;-34
2023/05/15 06:28:34;;;;;;;88.82;56.40;;;16.10;61.90;;;;;;5021012;28;20048;-38
2023/05/15 06:31:03;;;;;;;94.15;58.15;;;16.10;61.50;;;;;;5020162;28;20057;-38
2023/05/15 06:33:30;;;;;;;95.15;57.72;;;16.10;61.60;;;;;;5021595;28;20489;-34
2023/05/15 06:35:58;;;;;;;84.10;52.30;;;16.10;61.70;;;;;;5020856;28;21195;-35
2023/05/15 06:38:25;;;;;;;80.03;49.83;;;16.10;61.70;;;;;;5021640;28;20065;-34
2023/05/15 06:40:52;;;;;;;73.18;46.55;;;16.00;61.70;;;;;;5022100;28;20053;-36
2023/05/15 06:43:21;;;;;;;76.45;47.88;;;16.00;61.70;;;;;;5025853;28;20053;-35
2023/05/15 06:45:49;;;;;;;77.03;50.97;;;16.00;61.80;;;;;;5026216;28;20049;-38
2023/05/15 06:48:18;;;;;;;78.65;47.50;;;16.00;61.90;;;;;;5025760;28;20491;-35
2023/05/15 06:50:45;;;;;;;82.78;50.47;;;16.00;61.90;;;;;;5026312;28;20060;-35
2023/05/15 06:53:12;;;;;;;82.80;51.80;;;16.00;62.00;;;;;;5025632;28;20061;-38
2023/05/15 06:55:39;;;;;;;83.20;52.15;;;16.00;61.90;;;;;;5025657;28;20575;-38
2023/05/15 06:58:06;;;;;;;80.25;50.10;;;16.00;62.00;;;;;;5025781;28;20076;-38
2023/05/15 07:00:34;;;;;;;85.75;52.83;;;16.00;62.00;;;;;;5022969;28;20068;-38
2023/05/15 07:03:01;;;;;;;81.80;51.20;;;16.00;62.00;;;;;;5024717;28;20050;-36
2023/05/15 07:05:30;;;;;;;76.60;49.65;;;16.00;62.00;;;;;;5024560;28;20057;-37
2023/05/15 07:07:57;;;;;;;76.30;49.22;;;16.00;61.80;;;;;;5026096;28;21376;-35
2023/05/15 07:10:24;;;;;;;80.15;52.00;;;16.00;62.00;;;;;;5023584;28;20064;-35
2023/05/15 07:12:51;;;;;;;101.28;59.22;;;16.00;62.10;;;;;;5026452;28;20057;-35
2023/05/15 07:15:19;;;;;;;97.05;58.85;;;16.00;61.80;;;;;;5021972;28;20077;-36
2023/05/15 07:17:46;;;;;;;101.05;62.22;;;16.00;61.80;;;;;;5024381;28;20060;-36
2023/05/15 07:20:13;;;;;;;103.43;63.35;;;15.90;61.50;;;;;;5025790;28;20053;-36
2023/05/15 07:22:42;;;;;;;108.90;63.13;;;15.90;61.50;;;;;;5025532;28;20056;-35
2023/05/15 07:25:09;;;;;;;95.88;59.10;;;15.90;61.80;;;;;;5024815;28;20060;-35
2023/05/15 07:27:36;;;;;;;107.85;61.38;;;15.90;62.20;;;;;;5025771;28;20049;-36
2023/05/15 07:30:05;;;;;;;104.03;61.70;;;15.90;62.50;;;;;;5018363;28;20416;-36
2023/05/15 07:32:32;;;;;;;104.10;61.05;;;15.90;62.30;;;;;;5026105;28;20045;-34
2023/05/15 07:34:59;;;;;;;108.95;61.80;;;16.00;62.20;;;;;;5023976;28;20493;-36
2023/05/15 07:37:27;;;;;;;107.28;60.65;;;16.00;62.30;;;;;;5024598;28;20061;-36
2023/05/15 07:39:56;;;;;;;99.63;58.65;;;16.00;62.30;;;;;;5025176;28;20060;-41
2023/05/15 07:42:23;;;;;;;105.38;59.65;;;16.10;62.30;;;;;;5026035;28;20396;-35
2023/05/15 07:44:50;;;;;;;101.43;61.47;;;16.20;62.50;;;;;;5023810;28;20049;-35
2023/05/15 07:47:17;;;;;;;107.78;62.55;;;16.20;61.70;;;;;;5022079;28;20069;-38
2023/05/15 07:49:45;;;;;;;97.00;58.05;;;16.30;61.50;;;;;;5023144;28;20057;-34
2023/05/15 07:52:12;;;;;;;99.32;59.08;;;16.30;61.30;;;;;;5022566;28;20053;-35
2023/05/15 07:54:40;;;;;;;102.30;59.65;;;16.30;61.30;;;;;;5024672;28;20073;-34
2023/05/15 07:57:09;;;;;;;119.65;62.00;;;16.40;61.10;;;;;;5025617;28;20060;-37
2023/05/15 07:59:36;;;;;;;95.55;57.35;;;16.40;61.10;;;;;;5025182;28;20051;-34
2023/05/15 08:02:04;;;;;;;92.00;56.58;;;16.40;60.80;;;;;;5021908;28;20056;-35
2023/05/15 08:04:31;;;;;;;87.85;54.05;;;16.50;60.70;;;;;;5024835;28;20061;-43
2023/05/15 08:06:58;;;;;;;96.13;58.58;;;16.40;60.50;;;;;;5024693;28;20052;-50
2023/05/15 08:09:25;;;;;;;85.25;53.33;;;16.50;60.30;;;;;;5025104;28;20053;-40
2023/05/15 08:11:55;;;;;;;91.95;53.47;;;16.40;60.30;;;;;;5024721;28;20535;-43
2023/05/15 08:14:24;;;;;;;93.75;55.38;;;16.50;60.10;;;;;;5024271;28;20131;-41
2023/05/15 08:16:51;;;;;;;93.43;54.65;;;16.50;60.20;;;;;;5024354;28;20061;-42
2023/05/15 08:19:20;;;;;;;95.43;55.25;;;16.50;59.90;;;;;;5025109;28;20435;-41
2023/05/15 08:21:47;;;;;;;84.43;52.92;;;16.50;60.00;;;;;;5024963;28;20056;-43
2023/05/15 08:24:15;;;;;;;86.00;51.85;;;16.50;59.70;;;;;;5023527;28;20053;-40
2023/05/15 08:26:42;;;;;;;95.10;55.40;;;16.60;59.70;;;;;;5024177;28;20053;-40
2023/05/15 08:29:10;;;;;;;90.25;52.83;;;16.60;59.60;;;;;;5024231;28;20057;-41
2023/05/15 08:31:38;;;;;;;80.80;51.05;;;16.60;59.40;;;;;;5023253;28;20061;-44
2023/05/15 08:34:06;;;;;;;106.82;57.78;;;16.60;59.30;;;;;;5025966;28;20061;-43
2023/05/15 08:36:33;;;;;;;87.93;54.05;;;16.60;59.20;;;;;;5023178;28;20420;-46
2023/05/15 08:39:01;;;;;;;87.78;51.83;;;16.60;59.20;;;;;;5023802;28;20501;-46
2023/05/15 08:41:32;;;;;;;86.85;51.88;;;16.60;59.50;;;;;;5024850;28;20071;-43
2023/05/15 08:44:04;;;;;;;94.60;56.50;;;16.60;59.40;;;;;;5023874;28;20060;-43
2023/05/15 08:46:34;;;;;;;86.90;52.95;;;16.60;59.10;;;;;;5021777;28;20068;-49
2023/05/15 08:49:08;;;;;;;87.30;52.88;;;16.60;58.90;;;;;;5023460;28;20049;-42
2023/05/15 08:51:35;;;;;;;;;;;16.60;58.90;;;;;;5025234;28;20591;-48
2023/05/15 08:54:03;;;;;;;85.00;51.60;;;16.70;59.00;;;;;;5023015;28;19921;-50
2023/05/15 08:56:30;;;;;;;91.13;53.67;;;16.60;58.70;;;;;;5023771;28;20065;-46
2023/05/15 08:58:58;;;;;;;80.38;49.17;;;16.60;58.80;;;;;;5024204;28;20132;-48
2023/05/15 09:01:26;;;;;;;70.13;45.95;;;16.60;59.20;;;;;;5021781;28;20408;-41
2023/05/15 09:03:54;;;;;;;78.60;49.95;;;16.60;59.30;;;;;;5022386;28;20049;-43
2023/05/15 09:06:22;;;;;;;81.78;50.63;;;16.60;59.30;;;;;;5023561;28;20054;-42
2023/05/15 09:08:51;;;;;;;68.63;45.47;;;16.60;59.20;;;;;;5023321;28;20064;-43
2023/05/15 09:11:18;;;;;;;72.53;48.20;;;16.70;59.20;;;;;;5023663;28;20301;-41
2023/05/15 09:13:45;;;;;;;76.90;48.33;;;16.70;58.90;;;;;;5022837;28;20057;-46
2023/05/15 09:16:12;;;;;;;83.35;50.15;;;16.70;58.80;;;;;;5019990;28;20506;-45
2023/05/15 09:18:41;;;;;;;81.35;50.50;;;16.80;58.80;;;;;;5021251;28;20052;-42
2023/05/15 09:21:26;;;;;;;78.30;51.65;;;16.80;58.80;;;;;;5022364;28;20488;-44
2023/05/15 09:23:53;;;;;;;91.50;53.22;;;16.90;58.70;;;;;;5025247;28;20053;-43
2023/05/15 09:26:21;;;;;;;88.45;51.22;;;17.00;58.40;;;;;;5022615;28;20496;-48
2023/05/15 09:28:48;;;;;;;83.82;52.85;;;17.00;58.30;;;;;;5023118;28;20049;-44
2023/05/15 09:31:21;;;;;;;90.57;52.97;;;17.00;58.20;;;;;;5021180;28;20057;-41
2023/05/15 09:33:59;;;;;;;73.90;47.70;;;17.10;58.10;;;;;;5020956;28;20049;-41
2023/05/15 09:36:28;;;;;;;93.10;54.47;;;17.10;58.30;;;;;;5022693;28;20496;-43
2023/05/15 09:38:58;;;;;;;84.97;53.05;;;17.20;58.50;;;;;;5023238;28;20409;-44
2023/05/15 09:41:27;;;;;;;76.60;47.95;;;17.20;58.20;;;;;;5021498;28;20420;-41
2023/05/15 09:43:55;;;;;;;80.97;50.35;;;17.20;58.20;;;;;;5023788;28;20053;-41
2023/05/15 09:46:23;;;;;;;84.72;52.75;;;17.30;58.00;;;;;;5020506;28;20057;-40
2023/05/15 09:48:54;;;;;;;80.90;51.50;;;17.30;57.50;;;;;;5023076;28;20448;-42
2023/05/15 09:51:21;;;;;;;84.70;52.95;;;17.40;57.40;;;;;;5023975;28;20054;-48
2023/05/15 09:53:52;;;;;;;69.57;45.92;;;17.40;57.30;;;;;;5023344;28;20422;-44
2023/05/15 09:56:19;;;;;;;92.65;55.33;;;17.40;57.40;;;;;;5022238;28;20060;-43
2023/05/15 09:58:53;;;;;;;81.03;52.13;;;17.40;57.40;;;;;;5023871;28;20068;-43
2023/05/15 10:01:21;;;;;;;77.72;48.47;;;17.40;57.20;;;;;;5019748;28;20057;-45
2023/05/15 10:03:58;;;;;;;80.35;50.70;;;17.40;57.10;;;;;;5021250;28;20496;-41
2023/05/15 10:06:25;;;;;;;81.18;49.13;;;17.40;56.80;;;;;;5022437;28;20061;-41
2023/05/15 10:08:54;;;;;;;87.78;53.28;;;17.50;57.00;;;;;;5023027;28;20045;-42
2023/05/15 10:11:24;;;;;;;90.25;51.78;;;17.50;57.00;;;;;;5022128;28;20065;-44
2023/05/15 10:13:51;;;;;;;71.47;47.17;;;17.50;56.90;;;;;;5022952;28;20049;-41
2023/05/15 10:16:22;;;;;;;87.97;52.13;;;17.50;57.00;;;;;;5022606;28;20068;-42
2023/05/15 10:18:52;;;;;;;80.03;48.47;;;17.50;56.60;;;;;;5026898;28;20058;-44
2023/05/15 10:21:21;;;;;;;89.18;53.90;;;17.60;56.80;;;;;;5027830;28;20492;-43
2023/05/15 10:23:50;;;;;;;80.13;52.45;;;17.60;56.50;;;;;;5026766;28;20049;-43
2023/05/15 10:26:23;;;;;;;90.45;51.75;;;17.60;56.20;;;;;;5026147;28;20887;-51
2023/05/15 10:28:52;;;;;;;74.20;47.30;;;17.60;55.90;;;;;;5027667;28;20049;-47
2023/05/15 10:31:20;;;;;;;79.15;51.38;;;17.60;56.00;;;;;;5024241;28;20412;-44
2023/05/15 10:33:47;;;;;;;73.70;48.65;;;17.70;56.30;;;;;;5027719;28;20046;-52
2023/05/15 10:36:15;;;;;;;80.28;51.92;;;17.60;55.90;;;;;;5024686;28;20052;-49
2023/05/15 10:38:44;;;;;;;85.57;50.90;;;17.60;55.40;;;;;;5026103;28;20053;-48
2023/05/15 10:41:12;;;;;;;83.80;51.70;;;17.60;55.50;;;;;;5024316;28;20050;-50
2023/05/15 10:43:41;;;;;;;77.93;49.65;;;17.60;55.00;;;;;;5023333;28;21085;-49
2023/05/15 10:46:10;;;;;;;72.03;47.40;;;17.50;55.50;;;;;;5025114;28;20053;-45
2023/05/15 10:48:39;;;;;;;79.45;49.10;;;17.50;55.80;;;;;;5024334;28;20060;-45
2023/05/15 10:51:14;;;;;;;85.47;53.13;;;17.40;56.10;;;;;;5027232;28;20496;-47
2023/05/15 10:53:43;;;;;;;79.85;51.72;;;17.40;56.50;;;;;;5023349;28;20673;-44
2023/05/15 10:56:14;;;;;;;68.72;46.13;;;17.40;56.20;;;;;;5025921;28;20053;-47
2023/05/15 10:58:47;;;;;;;81.30;50.20;;;17.40;56.30;;;;;;5023686;28;20056;-48
2023/05/15 11:01:27;;;;;;;93.35;52.83;;;17.40;56.40;;;;;;5024551;28;20049;-49
2023/05/15 11:04:09;;;;;;;84.28;48.45;;;17.40;56.20;;;;;;5025665;28;20049;-48
2023/05/15 11:06:37;;;;;;;73.13;49.88;;;17.40;56.50;;;;;;5026769;28;20061;-43
2023/05/15 11:09:33;;;;;;;81.78;51.40;;;17.40;56.20;;;;;;5024443;28;20045;-41
2023/05/15 11:12:04;;;;;;;74.72;49.03;;;17.40;57.20;;;;;;5024622;28;20061;-41
2023/05/15 11:14:36;;;;;;;85.20;52.40;;;17.40;56.50;;;;;;5026729;28;20054;-46
2023/05/15 11:17:06;;;;;;;71.53;47.03;;;17.40;56.40;;;;;;5026412;28;20053;-46
2023/05/15 11:19:57;;;;;;;74.68;48.33;;;17.40;56.60;;;;;;5028640;28;20057;-44
2023/05/15 11:22:31;;;;;;;68.93;45.28;;;17.40;57.00;;;;;;5027591;28;20063;-47
2023/05/15 11:25:01;;;;;;;80.20;49.92;;;17.40;56.70;;;;;;5027659;28;20481;-46
2023/05/15 11:27:31;;;;;;;64.35;41.25;;;17.50;56.40;;;;;;5027256;28;20053;-43
2023/05/15 11:30:08;;;;;;;74.68;48.47;;;17.50;56.70;;;;;;5024595;28;20061;-45
2023/05/15 11:32:49;;;;;;;73.47;45.53;;;17.50;57.00;;;;;;5025594;28;20049;-46
2023/05/15 11:35:22;;;;;;;78.60;50.50;;;17.60;56.90;;;;;;5025524;28;20045;-44
2023/05/15 11:37:52;;;;;;;75.13;48.38;;;17.60;56.70;;;;;;5025330;28;20053;-46
2023/05/15 11:40:24;;;;;;;64.32;45.08;;;17.70;56.60;;;;;;5030236;28;20057;-50
2023/05/15 11:43:06;;;;;;;56.17;39.35;;;17.70;56.70;;;;;;5030176;28;20053;-44
2023/05/15 11:45:37;;;;;;;61.42;39.85;;;17.80;56.90;;;;;;5027077;28;20064;-51
2023/05/15 11:48:08;;;;;;;52.47;37.25;;;17.90;56.80;;;;;;5029842;28;20405;-47
2023/05/15 11:50:38;;;;;;;51.40;35.35;;;17.90;55.90;;;;;;5028686;28;20484;-41
2023/05/15 11:53:08;;;;;;;49.22;33.28;;;18.00;55.90;;;;;;5027624;28;20512;-46
2023/05/15 11:55:39;;;;;;;48.90;35.67;;;18.10;55.80;;;;;;5028064;28;20056;-51
2023/05/15 11:58:10;;;;;;;49.33;34.78;;;18.20;55.10;;;;;;5028907;28;20058;-45
2023/05/15 12:00:39;;;;;;;48.65;32.25;;;18.30;54.60;;;;;;5026680;28;20053;-48
2023/05/15 12:03:11;;;;;;;53.85;33.47;;;18.30;55.10;;;;;;5026813;28;20075;-43
2023/05/15 12:05:40;;;;;;;46.90;31.67;;;18.40;55.30;;;;;;5027440;28;20412;-46
2023/05/15 12:08:09;;;;;;;38.33;28.83;;;18.50;55.10;;;;;;5028012;28;20065;-43
2023/05/15 12:10:41;;;;;;;46.05;31.30;;;18.60;54.70;;;;;;5026458;28;20057;-46
2023/05/15 12:13:08;;;;;;;47.20;31.15;;;18.60;54.50;;;;;;5026744;28;20058;-43
2023/05/15 12:15:39;;;;;;;41.88;30.40;;;18.70;53.90;;;;;;5025923;28;20060;-45
2023/05/15 12:18:08;;;;;;;37.72;26.75;;;18.80;54.20;;;;;;5027933;28;20088;-43
2023/05/15 12:20:38;;;;;;;37.28;25.95;;;18.80;54.80;;;;;;5029167;28;20053;-49
2023/05/15 12:23:07;;;;;;;38.95;27.67;;;19.00;55.20;;;;;;5027754;28;20048;-48
2023/05/15 12:25:37;;;;;;;38.65;26.63;;;19.00;54.10;;;;;;5027657;28;20061;-47
2023/05/15 12:28:06;;;;;;;41.03;27.20;;;19.10;54.20;;;;;;5028126;28;20076;-46
2023/05/15 12:30:34;;;;;;;39.15;28.00;;;19.20;53.40;;;;;;5025813;28;20537;-45
2023/05/15 12:33:05;;;;;;;35.55;26.08;;;19.20;53.20;;;;;;5027176;28;20072;-45
2023/05/15 12:35:34;;;;;;;36.97;25.80;;;19.40;52.70;;;;;;5025241;28;20049;-42
2023/05/15 12:38:03;;;;;;;29.73;21.33;;;19.40;52.00;;;;;;5025664;28;20503;-44